createdAt,value
2019-02-08T00:00:23.630Z,75.33
2019-02-08T00:02:51.933Z,75.34
2019-02-08T00:05:20.143Z,75.25
2019-02-08T00:07:48.447Z,75.26
2019-02-08T00:10:22.761Z,75.32
2019-02-08T00:12:51.051Z,75.48
2019-02-08T00:15:23.344Z,75.54
2019-02-08T00:17:51.592Z,75.56
2019-02-08T00:20:20.908Z,75.52
2019-02-08T00:22:49.174Z,75.57
2019-02-08T00:25:21.804Z,75.76
2019-02-08T00:27:50.081Z,75.91
2019-02-08T00:30:29.661Z,76.07
2019-02-08T00:32:57.898Z,76.14
2019-02-08T00:35:26.165Z,76.09
2019-02-08T00:37:54.487Z,76.24
2019-02-08T00:40:24.762Z,76.23
2019-02-08T00:42:53.060Z,76.11
2019-02-08T00:45:22.465Z,76.04
2019-02-08T00:47:50.725Z,75.94
2019-02-08T00:50:31.287Z,75.81
2019-02-08T00:52:59.586Z,75.76
2019-02-08T00:55:27.843Z,75.69
2019-02-08T00:57:56.692Z,75.65
2019-02-08T01:00:25.043Z,75.58
2019-02-08T01:02:54.448Z,75.58
2019-02-08T01:05:24.301Z,75.53
2019-02-08T01:07:52.674Z,75.54
2019-02-08T01:10:26.366Z,75.58
2019-02-08T01:12:54.592Z,75.59
2019-02-08T01:15:23.917Z,75.61
2019-02-08T01:17:52.242Z,75.63
2019-02-08T01:20:22.219Z,75.63
2019-02-08T01:22:50.494Z,75.72
2019-02-08T01:25:21.267Z,75.77
2019-02-08T01:27:49.604Z,75.81
2019-02-08T01:30:23.170Z,75.85
2019-02-08T01:32:51.620Z,75.85
2019-02-08T01:35:20.856Z,75.87
2019-02-08T01:37:49.296Z,75.73
2019-02-08T01:40:26.203Z,75.72
2019-02-08T01:42:54.444Z,75.71
2019-02-08T01:45:24.667Z,75.67
2019-02-08T01:47:52.916Z,75.61
2019-02-08T01:50:29.273Z,75.69
2019-02-08T01:52:57.601Z,75.74
2019-02-08T01:55:25.994Z,75.72
2019-02-08T01:57:54.343Z,75.79
2019-02-08T02:00:34.372Z,75.81
2019-02-08T02:03:02.768Z,75.92
2019-02-08T02:05:31.048Z,75.95
2019-02-08T02:07:59.298Z,76.01
2019-02-08T02:10:32.867Z,76.02
2019-02-08T02:13:01.182Z,76.07
2019-02-08T02:15:29.622Z,76.13
2019-02-08T02:17:57.889Z,76.19
2019-02-08T02:20:28.962Z,76.20
2019-02-08T02:22:57.217Z,76.24
2019-02-08T02:25:25.526Z,76.21
2019-02-08T02:27:53.830Z,76.16
2019-02-08T02:30:32.387Z,76.19
2019-02-08T02:33:00.704Z,76.23
2019-02-08T02:35:29.007Z,76.17
2019-02-08T02:37:57.270Z,76.18
2019-02-08T02:40:25.541Z,76.25
2019-02-08T02:42:53.792Z,76.22
2019-02-08T02:45:36.548Z,76.17
2019-02-08T02:48:06.148Z,76.24
2019-02-08T02:50:34.421Z,76.17
2019-02-08T02:53:02.702Z,76.20
2019-02-08T02:55:31.119Z,76.28
2019-02-08T02:57:59.399Z,76.24
2019-02-08T03:00:30.503Z,76.20
2019-02-08T03:02:59.189Z,76.24
2019-02-08T03:05:27.734Z,76.23
2019-02-08T03:07:56.006Z,76.21
2019-02-08T03:10:24.424Z,76.32
2019-02-08T03:12:52.719Z,76.29
2019-02-08T03:15:22.618Z,76.31
2019-02-08T03:17:51.227Z,76.38
2019-02-08T03:20:20.832Z,76.47
2019-02-08T03:22:49.250Z,76.54
2019-02-08T03:25:20.293Z,76.55
2019-02-08T03:27:48.715Z,76.59
2019-02-08T03:30:26.983Z,76.69
2019-02-08T03:32:55.310Z,76.81
2019-02-08T03:35:26.017Z,76.94
2019-02-08T03:37:56.323Z,76.94
2019-02-08T03:40:26.576Z,76.94
2019-02-08T03:42:54.842Z,77.00
2019-02-08T03:45:23.395Z,76.98
2019-02-08T03:47:51.684Z,77.04
2019-02-08T03:50:23.751Z,77.00
2019-02-08T03:52:53.098Z,77.08
2019-02-08T03:55:24.860Z,77.11
2019-02-08T03:57:53.215Z,77.14
2019-02-08T04:00:29.024Z,77.25
2019-02-08T04:02:57.326Z,77.33
2019-02-08T04:05:25.578Z,77.42
2019-02-08T04:07:53.858Z,77.49
2019-02-08T04:10:22.236Z,77.53
2019-02-08T04:12:50.514Z,77.47
2019-02-08T04:15:23.539Z,77.47
2019-02-08T04:17:51.814Z,77.37
2019-02-08T04:20:22.683Z,77.32
2019-02-08T04:22:50.949Z,77.38
2019-02-08T04:25:19.200Z,77.40
2019-02-08T04:27:47.543Z,77.36
2019-02-08T04:30:29.027Z,77.43
2019-02-08T04:32:57.825Z,77.50
2019-02-08T04:35:26.470Z,77.54
2019-02-08T04:37:54.739Z,77.61
2019-02-08T04:40:25.139Z,77.70
2019-02-08T04:42:53.511Z,77.68
2019-02-08T04:45:22.198Z,77.72
2019-02-08T04:47:50.517Z,77.75
2019-02-08T04:50:29.807Z,77.85
2019-02-08T04:52:58.170Z,77.96
2019-02-08T04:55:26.634Z,78.17
2019-02-08T04:57:54.911Z,78.12
2019-02-08T05:00:31.257Z,78.12
2019-02-08T05:02:59.579Z,78.20
2019-02-08T05:05:27.995Z,78.21
2019-02-08T05:07:56.450Z,78.22
2019-02-08T05:10:32.582Z,78.96
2019-02-08T05:13:01.026Z,79.41
2019-02-08T05:15:29.293Z,80.19
2019-02-08T05:17:57.646Z,80.78
2019-02-08T05:20:30.351Z,81.34
2019-02-08T05:22:58.662Z,81.73
2019-02-08T05:25:27.277Z,81.85
2019-02-08T05:27:55.570Z,82.32
2019-02-08T05:30:32.685Z,82.26
2019-02-08T05:33:00.963Z,82.73
2019-02-08T05:35:29.200Z,82.55
2019-02-08T05:37:57.925Z,82.68
2019-02-08T05:40:26.406Z,82.74
2019-02-08T05:42:54.675Z,82.76
2019-02-08T05:45:26.702Z,83.03
2019-02-08T05:47:54.985Z,82.86
2019-02-08T05:50:26.021Z,83.14
2019-02-08T05:52:54.363Z,83.16
2019-02-08T05:55:28.449Z,82.98
2019-02-08T05:57:56.692Z,83.12
2019-02-08T06:00:34.447Z,83.02
2019-02-08T06:03:03.111Z,83.01
2019-02-08T06:05:31.416Z,82.92
2019-02-08T06:08:00.329Z,82.99
2019-02-08T06:10:28.638Z,82.91
2019-02-08T06:12:56.938Z,82.82
2019-02-08T06:15:25.923Z,82.88
2019-02-08T06:17:54.336Z,82.73
2019-02-08T06:20:24.561Z,82.72
2019-02-08T06:22:52.824Z,82.80
2019-02-08T06:25:22.030Z,82.83
2019-02-08T06:27:50.602Z,82.57
2019-02-08T06:30:31.788Z,82.55
2019-02-08T06:33:00.243Z,82.58
2019-02-08T06:35:29.133Z,82.70
2019-02-08T06:37:57.409Z,82.95
2019-02-08T06:40:33.959Z,83.09
2019-02-08T06:43:02.226Z,83.05
2019-02-08T06:45:30.508Z,83.26
2019-02-08T06:47:58.791Z,83.12
2019-02-08T06:50:27.921Z,83.02
2019-02-08T06:52:56.390Z,82.83
2019-02-08T06:55:24.951Z,82.83
2019-02-08T06:57:56.567Z,83.02
2019-02-08T07:00:28.273Z,83.19
2019-02-08T07:03:00.747Z,83.08
2019-02-08T07:05:39.647Z,82.91
2019-02-08T07:08:12.118Z,82.72
2019-02-08T07:10:51.002Z,82.45
2019-02-08T07:13:37.455Z,82.37
2019-02-08T07:16:07.442Z,82.61
2019-02-08T07:18:40.007Z,83.03
2019-02-08T07:21:15.741Z,83.35
2019-02-08T07:23:45.632Z,83.42
2019-02-08T07:26:21.615Z,83.25
2019-02-08T07:28:51.532Z,83.23
2019-02-08T07:31:21.438Z,82.77
2019-02-08T07:33:51.333Z,82.34
2019-02-08T07:36:23.944Z,81.87
2019-02-08T07:38:56.552Z,81.68
2019-02-08T07:41:44.480Z,81.54
2019-02-08T07:44:14.911Z,80.85
2019-02-08T07:46:45.344Z,80.75
2019-02-08T07:49:17.984Z,80.59
2019-02-08T07:51:50.840Z,80.53
2019-02-08T07:54:32.903Z,80.56
2019-02-08T07:57:08.955Z,80.04
2019-02-08T07:59:38.872Z,79.82
2019-02-08T08:02:08.793Z,79.60
2019-02-08T08:04:47.474Z,79.38
2019-02-08T08:07:17.360Z,78.94
2019-02-08T08:09:47.266Z,78.78
2019-02-08T08:12:23.285Z,78.71
2019-02-08T08:15:01.842Z,78.55
2019-02-08T08:17:37.353Z,78.22
2019-02-08T08:20:10.527Z,78.14
2019-02-08T08:22:58.708Z,78.26
2019-02-08T08:25:33.845Z,77.87
2019-02-08T08:28:16.465Z,77.74
2019-02-08T08:30:49.344Z,77.30
2019-02-08T08:33:27.165Z,77.68
2019-02-08T08:36:10.619Z,77.36
2019-02-08T08:38:44.913Z,77.42
2019-02-08T08:41:31.469Z,77.01
2019-02-08T08:44:27.160Z,76.84
2019-02-08T08:47:19.265Z,76.84
2019-02-08T08:49:59.529Z,76.87
2019-02-08T08:52:39.935Z,76.87
2019-02-08T08:55:20.411Z,76.49
2019-02-08T08:58:00.569Z,76.81
2019-02-08T09:00:46.834Z,76.69
2019-02-08T09:03:40.844Z,76.37
2019-02-08T09:06:31.611Z,76.27
2019-02-08T09:09:09.037Z,76.34
2019-02-08T09:12:07.833Z,76.28
2019-02-08T09:14:51.027Z,76.16
2019-02-08T09:17:22.577Z,75.67
2019-02-08T09:20:09.047Z,75.96
2019-02-08T09:23:07.892Z,75.77
2019-02-08T09:25:49.719Z,75.52
2019-02-08T09:28:26.763Z,75.61
2019-02-08T09:31:14.612Z,75.38
2019-02-08T09:33:52.145Z,75.30
2019-02-08T09:36:38.953Z,75.19
2019-02-08T09:39:39.252Z,75.31
2019-02-08T09:42:28.100Z,75.26
2019-02-08T09:45:11.509Z,75.19
2019-02-08T09:48:18.003Z,75.14
2019-02-08T09:51:04.469Z,75.35
2019-02-08T09:53:36.001Z,75.27
2019-02-08T09:56:16.275Z,75.27
2019-02-08T09:59:10.327Z,75.22
2019-02-08T10:02:04.457Z,75.22
2019-02-08T10:05:09.066Z,74.96
2019-02-08T10:08:13.973Z,75.01
2019-02-08T10:10:57.513Z,74.67
2019-02-08T10:13:31.882Z,74.68
2019-02-08T10:16:16.345Z,74.49
2019-02-08T10:19:07.250Z,74.39
2019-02-08T10:21:53.754Z,74.45
2019-02-08T10:24:41.427Z,74.31
2019-02-08T10:27:24.922Z,74.36
2019-02-08T10:30:04.694Z,74.05
2019-02-08T10:33:04.970Z,73.94
2019-02-08T10:35:36.490Z,73.88
2019-02-08T10:38:26.911Z,73.56
2019-02-08T10:41:14.950Z,73.18
2019-02-08T10:43:49.180Z,73.42
2019-02-08T10:46:35.046Z,73.24
2019-02-08T10:49:20.767Z,72.44
2019-02-08T10:52:11.851Z,72.32
2019-02-08T10:55:16.518Z,72.71
2019-02-08T10:57:50.751Z,72.62
2019-02-08T11:00:41.934Z,72.66
2019-02-08T11:03:28.405Z,72.48
2019-02-08T11:06:25.232Z,72.45
2019-02-08T11:09:22.542Z,71.81
2019-02-08T11:12:27.654Z,71.79
2019-02-08T11:15:18.355Z,71.94
2019-02-08T11:18:26.574Z,71.97
2019-02-08T11:20:54.835Z,71.83
2019-02-08T11:23:23.126Z,71.83
2019-02-08T11:25:51.375Z,71.92
2019-02-08T11:28:19.630Z,72.13
2019-02-08T11:30:48.007Z,72.28
2019-02-08T11:33:16.255Z,72.25
2019-02-08T11:35:44.533Z,72.25
2019-02-08T11:38:12.856Z,72.06
2019-02-08T11:40:41.120Z,71.61
2019-02-08T11:43:09.415Z,71.68
2019-02-08T11:45:37.677Z,71.56
2019-02-08T11:48:05.983Z,71.63
2019-02-08T11:50:34.254Z,71.72
2019-02-08T11:53:02.636Z,71.48
2019-02-08T11:55:30.908Z,71.40
2019-02-08T11:57:59.159Z,71.68
2019-02-08T12:00:29.997Z,71.42
2019-02-08T12:02:58.608Z,71.52
2019-02-08T12:05:26.885Z,71.35
2019-02-08T12:07:55.309Z,71.45
2019-02-08T12:10:23.608Z,71.16
2019-02-08T12:12:51.846Z,71.05
2019-02-08T12:15:21.982Z,71.23
2019-02-08T12:17:50.251Z,71.29
2019-02-08T12:20:18.558Z,71.33
2019-02-08T12:22:46.814Z,71.10
2019-02-08T12:25:16.186Z,70.88
2019-02-08T12:27:44.442Z,71.00
2019-02-08T12:30:28.411Z,70.85
2019-02-08T12:32:57.105Z,71.08
2019-02-08T12:35:25.344Z,71.25
2019-02-08T12:37:53.617Z,71.02
2019-02-08T12:40:21.890Z,71.34
2019-02-08T12:42:50.204Z,70.68
2019-02-08T12:45:19.630Z,70.41
2019-02-08T12:47:47.847Z,70.75
2019-02-08T12:50:17.656Z,70.86
2019-02-08T12:52:45.981Z,71.04
2019-02-08T12:55:19.170Z,71.33
2019-02-08T12:57:47.449Z,71.58
2019-02-08T13:00:22.980Z,71.94
2019-02-08T13:02:51.256Z,71.76
2019-02-08T13:05:19.812Z,71.75
2019-02-08T13:07:48.197Z,71.78
2019-02-08T13:10:29.904Z,71.62
2019-02-08T13:12:58.518Z,72.24
2019-02-08T13:15:26.802Z,72.51
2019-02-08T13:17:55.048Z,72.33
2019-02-08T13:20:24.357Z,72.55
2019-02-08T13:22:52.598Z,72.92
2019-02-08T13:25:21.031Z,72.40
2019-02-08T13:27:49.580Z,72.87
2019-02-08T13:30:26.854Z,72.69
2019-02-08T13:32:55.100Z,72.83
2019-02-08T13:35:23.434Z,72.59
2019-02-08T13:37:51.759Z,72.59
2019-02-08T13:40:27.876Z,72.57
2019-02-08T13:42:56.652Z,72.54
2019-02-08T13:45:24.929Z,72.07
2019-02-08T13:47:53.284Z,71.88
2019-02-08T13:50:31.514Z,72.17
2019-02-08T13:53:00.230Z,72.09
2019-02-08T13:55:28.574Z,72.09
2019-02-08T13:57:56.985Z,72.01
2019-02-08T14:00:36.771Z,71.84
2019-02-08T14:03:05.913Z,71.80
2019-02-08T14:05:34.245Z,71.82
2019-02-08T14:08:02.486Z,71.69
2019-02-08T14:10:30.845Z,71.64
2019-02-08T14:12:59.104Z,71.78
2019-02-08T14:15:27.429Z,71.96
2019-02-08T14:17:55.989Z,71.45
2019-02-08T14:20:28.760Z,71.58
2019-02-08T14:22:57.017Z,71.38
2019-02-08T14:25:25.290Z,71.35
2019-02-08T14:27:53.550Z,71.27
2019-02-08T14:30:27.505Z,71.15
2019-02-08T14:32:56.015Z,71.32
2019-02-08T14:35:24.462Z,71.22
2019-02-08T14:37:54.462Z,71.38
2019-02-08T14:40:24.348Z,71.43
2019-02-08T14:42:52.962Z,71.13
2019-02-08T14:45:21.343Z,71.29
2019-02-08T14:47:49.688Z,71.21
2019-02-08T14:50:25.787Z,71.33
2019-02-08T14:52:54.324Z,71.41
2019-02-08T14:55:22.737Z,71.51
2019-02-08T14:57:52.133Z,71.53
2019-02-08T15:00:22.356Z,71.67
2019-02-08T15:02:50.629Z,71.64
2019-02-08T15:05:20.104Z,71.68
2019-02-08T15:07:48.521Z,71.63
2019-02-08T15:10:31.609Z,71.71
2019-02-08T15:13:00.326Z,71.73
2019-02-08T15:15:28.753Z,71.72
2019-02-08T15:17:56.996Z,71.50
2019-02-08T15:20:33.221Z,71.50
2019-02-08T15:23:01.496Z,71.79
2019-02-08T15:25:29.769Z,71.82
2019-02-08T15:27:58.347Z,71.66
2019-02-08T15:30:32.901Z,71.81
2019-02-08T15:33:01.334Z,71.67
2019-02-08T15:35:31.016Z,71.51
2019-02-08T15:37:59.280Z,71.64
2019-02-08T15:40:48.651Z,71.68
2019-02-08T15:43:19.448Z,71.62
2019-02-08T15:45:56.707Z,71.49
2019-02-08T15:48:25.351Z,71.77
2019-02-08T15:50:53.974Z,71.83
2019-02-08T15:53:23.053Z,71.94
2019-02-08T15:55:54.624Z,71.93
2019-02-08T15:58:23.535Z,72.13
2019-02-08T16:00:51.779Z,72.03
2019-02-08T16:03:20.043Z,72.01
2019-02-08T16:05:48.575Z,72.09
2019-02-08T16:08:16.816Z,72.13
2019-02-08T16:10:45.211Z,72.06
2019-02-08T16:13:13.719Z,72.24
2019-02-08T16:15:41.961Z,72.23
2019-02-08T16:18:10.364Z,72.07
2019-02-08T16:20:38.849Z,72.01
2019-02-08T16:23:07.093Z,72.01
2019-02-08T16:25:35.405Z,71.87
2019-02-08T16:28:03.800Z,72.06
2019-02-08T16:30:35.437Z,71.82
2019-02-08T16:33:04.401Z,71.80
2019-02-08T16:35:32.672Z,71.73
2019-02-08T16:38:00.943Z,71.69
2019-02-08T16:40:29.963Z,71.64
2019-02-08T16:42:58.388Z,71.52
2019-02-08T16:45:31.648Z,71.50
2019-02-08T16:48:00.910Z,71.46
2019-02-08T16:50:31.882Z,71.61
2019-02-08T16:53:00.116Z,71.36
2019-02-08T16:55:28.394Z,71.33
2019-02-08T16:57:56.811Z,71.33
2019-02-08T17:00:33.341Z,71.49
2019-02-08T17:03:03.271Z,71.42
2019-02-08T17:05:31.758Z,71.30
2019-02-08T17:08:00.220Z,71.23
2019-02-08T17:10:28.533Z,71.14
2019-02-08T17:12:56.775Z,71.25
2019-02-08T17:15:30.005Z,71.30
2019-02-08T17:17:58.522Z,71.28
2019-02-08T17:20:34.387Z,71.15
2019-02-08T17:23:02.712Z,71.18
2019-02-08T17:25:30.989Z,71.23
2019-02-08T17:27:59.528Z,71.29
2019-02-08T17:30:27.786Z,71.30
2019-02-08T17:32:56.122Z,71.33
2019-02-08T17:35:26.196Z,71.20
2019-02-08T17:37:54.487Z,71.17
2019-02-08T17:40:28.207Z,71.01
2019-02-08T17:42:56.748Z,70.88
2019-02-08T17:45:25.013Z,70.97
2019-02-08T17:47:53.709Z,70.80
2019-02-08T17:50:24.681Z,70.55
2019-02-08T17:52:53.087Z,70.67
2019-02-08T17:55:23.314Z,70.24
2019-02-08T17:57:51.570Z,70.36
2019-02-08T18:00:32.605Z,70.32
2019-02-08T18:03:01.010Z,70.21
2019-02-08T18:05:29.355Z,70.33
2019-02-08T18:07:58.045Z,70.30
2019-02-08T18:10:27.333Z,70.33
2019-02-08T18:12:55.612Z,70.13
2019-02-08T18:15:25.316Z,70.20
2019-02-08T18:17:53.563Z,70.16
2019-02-08T18:20:39.391Z,70.21
2019-02-08T18:23:07.667Z,70.26
2019-02-08T18:25:36.062Z,70.26
2019-02-08T18:28:10.768Z,70.03
2019-02-08T18:30:34.805Z,70.19
2019-02-08T18:33:03.262Z,70.22
2019-02-08T18:35:32.006Z,70.22
2019-02-08T18:38:00.523Z,70.21
2019-02-08T18:40:28.773Z,70.26
2019-02-08T18:42:57.623Z,70.19
2019-02-08T18:45:28.409Z,70.18
2019-02-08T18:47:57.210Z,70.28
2019-02-08T18:50:27.906Z,70.09
2019-02-08T18:52:56.178Z,70.25
2019-02-08T18:55:24.454Z,70.19
2019-02-08T18:57:52.708Z,70.19
2019-02-08T19:00:39.803Z,70.34
2019-02-08T19:03:02.787Z,70.31
2019-02-08T19:05:31.216Z,70.35
2019-02-08T19:07:59.467Z,70.29
2019-02-08T19:10:27.715Z,70.35
2019-02-08T19:12:55.987Z,70.25
2019-02-08T19:15:25.279Z,70.14
2019-02-08T19:17:53.588Z,70.17
2019-02-08T19:20:26.234Z,70.18
2019-02-08T19:22:54.472Z,70.21
2019-02-08T19:25:31.424Z,70.20
2019-02-08T19:27:59.668Z,70.29
2019-02-08T19:30:36.288Z,70.38
2019-02-08T19:33:05.345Z,70.38
2019-02-08T19:35:33.786Z,70.38
2019-02-08T19:38:02.237Z,70.51
2019-02-08T19:40:35.530Z,70.58
2019-02-08T19:43:04.156Z,70.64
2019-02-08T19:45:32.474Z,70.66
2019-02-08T19:48:00.750Z,70.65
2019-02-08T19:50:36.832Z,70.80
2019-02-08T19:53:06.192Z,70.77
2019-02-08T19:55:34.394Z,70.81
2019-02-08T19:58:02.801Z,70.73
2019-02-08T20:00:33.740Z,70.74
2019-02-08T20:03:02.697Z,70.60
2019-02-08T20:05:31.010Z,70.50
2019-02-08T20:07:59.346Z,70.37
2019-02-08T20:10:30.510Z,70.24
2019-02-08T20:12:59.048Z,70.16
2019-02-08T20:15:27.430Z,70.23
2019-02-08T20:17:55.701Z,70.19
2019-02-08T20:20:24.013Z,70.07
2019-02-08T20:22:52.667Z,69.88
2019-02-08T20:25:26.505Z,70.03
2019-02-08T20:27:54.895Z,70.02
2019-02-08T20:30:25.590Z,70.20
2019-02-08T20:32:53.997Z,69.98
2019-02-08T20:35:24.711Z,70.10
2019-02-08T20:37:53.584Z,70.00
2019-02-08T20:40:27.300Z,69.98
2019-02-08T20:42:55.571Z,69.92
2019-02-08T20:45:26.667Z,69.94
2019-02-08T20:47:55.136Z,69.78
2019-02-08T20:50:23.953Z,69.83
2019-02-08T20:52:52.599Z,69.79
2019-02-08T20:55:21.793Z,69.86
2019-02-08T20:57:50.076Z,69.68
2019-02-08T21:00:38.209Z,69.15
2019-02-08T21:03:11.277Z,69.15
2019-02-08T21:05:39.887Z,69.72
2019-02-08T21:08:09.001Z,69.63
2019-02-08T21:10:37.402Z,69.57
2019-02-08T21:13:06.906Z,69.47
2019-02-08T21:15:35.253Z,69.67
2019-02-08T21:18:04.059Z,69.63
2019-02-08T21:20:32.304Z,69.68
2019-02-08T21:23:00.573Z,69.81
2019-02-08T21:25:36.705Z,69.79
2019-02-08T21:28:05.963Z,69.81
2019-02-08T21:30:34.348Z,69.79
2019-02-08T21:33:02.782Z,69.92
2019-02-08T21:35:31.167Z,69.96
2019-02-08T21:37:59.415Z,69.97
2019-02-08T21:40:29.002Z,69.87
2019-02-08T21:42:57.478Z,69.83
2019-02-08T21:45:40.115Z,69.74
2019-02-08T21:48:09.526Z,69.62
2019-02-08T21:50:37.773Z,69.69
2019-02-08T21:53:06.277Z,69.55
2019-02-08T21:55:34.585Z,69.42
2019-02-08T21:58:02.840Z,69.33
2019-02-08T22:00:33.693Z,69.25
2019-02-08T22:03:02.663Z,69.14
2019-02-08T22:05:42.731Z,69.12
2019-02-08T22:08:11.046Z,69.23
2019-02-08T22:10:39.298Z,69.39
2019-02-08T22:13:07.586Z,69.44
2019-02-08T22:15:41.101Z,69.29
2019-02-08T22:18:09.529Z,69.35
2019-02-08T22:20:38.027Z,69.93
2019-02-08T22:23:06.342Z,71.22
2019-02-08T22:25:34.612Z,71.84
2019-02-08T22:28:02.944Z,72.33
2019-02-08T22:30:31.207Z,73.01
2019-02-08T22:33:01.802Z,73.38
2019-02-08T22:35:30.092Z,73.51
2019-02-08T22:37:58.334Z,73.99
2019-02-08T22:40:26.947Z,74.23
2019-02-08T22:42:55.468Z,74.60
2019-02-08T22:45:34.737Z,74.63
2019-02-08T22:48:03.064Z,74.51
2019-02-08T22:50:31.478Z,74.79
2019-02-08T22:52:59.758Z,75.30
2019-02-08T22:55:31.291Z,75.70
2019-02-08T22:57:59.581Z,75.83
2019-02-08T23:00:44.555Z,75.81
2019-02-08T23:03:13.955Z,76.46
2019-02-08T23:05:45.694Z,76.19
2019-02-08T23:08:12.208Z,76.47
2019-02-08T23:10:40.464Z,76.76
2019-02-08T23:13:09.667Z,76.99
2019-02-08T23:15:38.035Z,77.20
2019-02-08T23:18:09.579Z,77.60
2019-02-08T23:20:37.869Z,77.75
2019-02-08T23:23:06.207Z,77.96
2019-02-08T23:25:34.451Z,78.09
2019-02-08T23:28:02.730Z,77.85
2019-02-08T23:30:30.973Z,78.87
2019-02-08T23:32:59.210Z,78.87
2019-02-08T23:35:27.647Z,79.24
2019-02-08T23:37:55.958Z,79.61
2019-02-08T23:40:24.238Z,79.74
2019-02-08T23:42:52.482Z,80.04
2019-02-08T23:45:22.851Z,80.67
2019-02-08T23:47:51.087Z,80.87
2019-02-08T23:50:23.333Z,81.09
2019-02-08T23:52:51.571Z,81.76
2019-02-08T23:55:24.177Z,82.12
2019-02-08T23:57:52.418Z,82.25
